createdAt,value
2023-04-29T00:01:30.476Z,98323.00
2023-04-29T00:03:57.123Z,98314.19
2023-04-29T00:06:24.038Z,98316.84
2023-04-29T00:08:52.241Z,98316.03
2023-04-29T00:11:18.871Z,98315.06
2023-04-29T00:13:45.402Z,98312.63
2023-04-29T00:16:11.982Z,98316.03
2023-04-29T00:18:38.481Z,98318.78
2023-04-29T00:21:07.967Z,98311.22
2023-04-29T00:23:34.637Z,98315.28
2023-04-29T00:26:01.276Z,98290.75
2023-04-29T00:28:28.097Z,98310.38
2023-04-29T00:30:55.945Z,98323.22
2023-04-29T00:33:22.746Z,98301.84
2023-04-29T00:35:49.541Z,98313.03
2023-04-29T00:38:16.293Z,98318.88
2023-04-29T00:40:46.061Z,98297.03
2023-04-29T00:43:13.508Z,98305.78
2023-04-29T00:45:40.377Z,98305.09
2023-04-29T00:48:07.914Z,98292.34
2023-04-29T00:50:34.740Z,98301.47
2023-04-29T00:53:01.430Z,98300.16
2023-04-29T00:55:28.731Z,98304.09
2023-04-29T00:57:56.048Z,98302.44
2023-04-29T01:00:24.432Z,98296.28
2023-04-29T01:02:51.119Z,98298.94
2023-04-29T01:05:17.958Z,98305.09
2023-04-29T01:08:06.214Z,98304.22
2023-04-29T01:10:41.911Z,98299.06
2023-04-29T01:13:19.008Z,98296.44
2023-04-29T01:15:55.821Z,98301.72
2023-04-29T01:18:27.977Z,98298.13
2023-04-29T01:20:55.543Z,98303.41
2023-04-29T01:23:26.754Z,98297.38
2023-04-29T01:25:53.356Z,98298.22
2023-04-29T01:28:48.779Z,98298.22
2023-04-29T01:31:24.601Z,98299.06
2023-04-29T01:34:09.092Z,98297.38
2023-04-29T01:36:50.894Z,98293.78
2023-04-29T01:39:26.563Z,98293.91
2023-04-29T01:42:37.375Z,98295.69
2023-04-29T01:45:11.789Z,98293.03
2023-04-29T01:47:39.241Z,98281.16
2023-04-29T01:50:06.575Z,98284.75
2023-04-29T01:52:33.772Z,98294.88
2023-04-29T01:55:00.370Z,98278.63
2023-04-29T01:57:35.963Z,98284.28
2023-04-29T02:00:17.650Z,98277.44
2023-04-29T02:02:50.175Z,98290.41
2023-04-29T02:05:32.306Z,98287.88
2023-04-29T02:07:59.201Z,98288.72
2023-04-29T02:10:26.056Z,98293.19
2023-04-29T02:13:01.470Z,98291.38
2023-04-29T02:15:29.207Z,98295.81
2023-04-29T02:17:56.112Z,98295.81
2023-04-29T02:20:22.874Z,98300.28
2023-04-29T02:22:49.552Z,98294.13
2023-04-29T02:25:16.373Z,98290.66
2023-04-29T02:27:43.134Z,98288.13
2023-04-29T02:30:10.084Z,98290.66
2023-04-29T02:32:39.400Z,98295.94
2023-04-29T02:35:07.366Z,98287.28
2023-04-29T02:37:34.490Z,98290.66
2023-04-29T02:40:03.736Z,98285.47
2023-04-29T02:42:30.805Z,98268.53
2023-04-29T02:44:57.855Z,98284.50
2023-04-29T02:47:24.695Z,98275.88
2023-04-29T02:49:51.836Z,98274.88
2023-04-29T02:52:19.048Z,98281.03
2023-04-29T02:54:46.528Z,98263.50
2023-04-29T02:57:13.146Z,98276.56
2023-04-29T02:59:39.678Z,98276.72
2023-04-29T03:02:06.255Z,98277.53
2023-04-29T03:04:33.267Z,98262.88
2023-04-29T03:06:59.835Z,98260.84
2023-04-29T03:09:27.718Z,98270.47
2023-04-29T03:11:54.473Z,98265.19
2023-04-29T03:14:21.165Z,98260.84
2023-04-29T03:16:48.514Z,98260.00
2023-04-29T03:19:15.319Z,98261.66
2023-04-29T03:21:41.878Z,98270.59
2023-04-29T03:24:08.496Z,98259.75
2023-04-29T03:26:36.830Z,98267.94
2023-04-29T03:29:04.266Z,98267.94
2023-04-29T03:31:30.962Z,98257.59
2023-04-29T03:33:57.778Z,98267.09
2023-04-29T03:36:24.402Z,98260.38
2023-04-29T03:39:01.239Z,98270.59
2023-04-29T03:41:28.915Z,98266.25
2023-04-29T03:44:00.586Z,98257.00
2023-04-29T03:46:29.094Z,98263.63
2023-04-29T03:48:58.637Z,98262.88
2023-04-29T03:51:26.142Z,98267.09
2023-04-29T03:53:59.665Z,98264.56
2023-04-29T03:56:26.471Z,98216.47
2023-04-29T03:58:53.316Z,98274.19
2023-04-29T04:01:21.954Z,98266.75
2023-04-29T04:03:48.861Z,98267.56
2023-04-29T04:06:15.598Z,98273.31
2023-04-29T04:08:42.395Z,98279.69
2023-04-29T04:13:38.205Z,98255.78
2023-04-29T04:16:05.623Z,98270.81
2023-04-29T04:18:32.443Z,98270.81
2023-04-29T04:21:05.873Z,98270.00
2023-04-29T04:23:32.647Z,98265.53
2023-04-29T04:26:00.807Z,98264.56
2023-04-29T04:28:46.346Z,98270.00
2023-04-29T04:31:20.409Z,98259.41
2023-04-29T04:33:47.018Z,98236.81
2023-04-29T04:36:14.265Z,98261.94
2023-04-29T04:38:41.132Z,98268.03
2023-04-29T04:41:11.482Z,98264.44
2023-04-29T04:43:40.873Z,98265.31
2023-04-29T04:46:16.002Z,98266.13
2023-04-29T04:49:00.483Z,98262.41
2023-04-29T04:51:31.461Z,98257.13
2023-04-29T04:53:58.097Z,98260.63
2023-04-29T04:56:28.396Z,98253.66
2023-04-29T04:58:55.051Z,98257.13
2023-04-29T05:01:21.674Z,98260.72
2023-04-29T05:03:48.464Z,98253.66
2023-04-29T05:06:15.650Z,98247.50
2023-04-29T05:08:45.478Z,98253.66
2023-04-29T05:11:21.836Z,98251.81
2023-04-29T05:14:18.524Z,98250.13
2023-04-29T05:16:46.677Z,98254.59
2023-04-29T05:19:13.446Z,98252.56
2023-04-29T05:21:40.793Z,98261.66
2023-04-29T05:24:13.761Z,98257.94
2023-04-29T05:26:44.605Z,98263.84
2023-04-29T05:29:12.227Z,98269.84
2023-04-29T05:31:48.694Z,98265.41
2023-04-29T05:34:15.756Z,98267.94
2023-04-29T05:36:42.351Z,98264.44
2023-04-29T05:39:09.064Z,98264.44
2023-04-29T05:41:35.738Z,98261.81
2023-04-29T05:44:32.825Z,98264.44
2023-04-29T05:46:59.402Z,98270.69
2023-04-29T05:49:25.909Z,98262.66
2023-04-29T05:51:52.526Z,98174.88
2023-04-29T05:54:19.107Z,98266.63
2023-04-29T05:56:46.634Z,98259.75
2023-04-29T05:59:13.553Z,98282.81
2023-04-29T06:01:40.552Z,98275.88
2023-04-29T06:04:08.243Z,98271.78
2023-04-29T06:06:56.824Z,98257.00
2023-04-29T06:09:42.757Z,98274.78
2023-04-29T06:12:10.649Z,98268.66
2023-04-29T06:14:37.326Z,98258.81
2023-04-29T06:17:07.022Z,98261.44
2023-04-29T06:19:34.141Z,98257.13
2023-04-29T06:22:00.883Z,98262.28
2023-04-29T06:24:27.566Z,98257.72
2023-04-29T06:26:54.274Z,98261.19
2023-04-29T06:29:21.018Z,98261.09
2023-04-29T06:31:47.710Z,98251.81
2023-04-29T06:34:14.556Z,98260.00
2023-04-29T06:37:07.258Z,98249.44
2023-04-29T06:39:59.916Z,98234.28
2023-04-29T06:42:49.448Z,98254.47
2023-04-29T06:45:42.655Z,98249.31
2023-04-29T06:48:18.366Z,98256.03
2023-04-29T06:50:55.907Z,98252.69
2023-04-29T06:53:22.831Z,98254.22
2023-04-29T06:55:50.960Z,98258.44
2023-04-29T06:58:20.438Z,98255.06
2023-04-29T07:00:48.802Z,98261.81
2023-04-29T07:03:16.181Z,98255.53
2023-04-29T07:05:45.412Z,98237.63
2023-04-29T07:08:13.681Z,98235.84
2023-04-29T07:10:41.653Z,98248.19
2023-04-29T07:13:08.526Z,98226.69
2023-04-29T07:15:36.411Z,98217.22
2023-04-29T07:18:06.929Z,98248.56
2023-04-29T07:20:36.828Z,98233.06
2023-04-29T07:23:03.436Z,98241.31
2023-04-29T07:25:30.911Z,98228.50
2023-04-29T07:27:57.727Z,98215.63
2023-04-29T07:30:28.489Z,98246.16
2023-04-29T07:32:55.338Z,98245.16
2023-04-29T07:35:22.373Z,98244.22
2023-04-29T07:37:49.260Z,98236.75
2023-04-29T07:40:15.930Z,98244.81
2023-04-29T07:42:43.274Z,98246.50
2023-04-29T07:45:10.399Z,98233.91
2023-04-29T07:47:37.179Z,98227.63
2023-04-29T07:50:05.278Z,98251.47
2023-04-29T07:52:31.937Z,98247.00
2023-04-29T07:54:58.615Z,98253.00
2023-04-29T07:57:25.336Z,98245.22
2023-04-29T07:59:55.126Z,98250.38
2023-04-29T08:02:22.121Z,98250.50
2023-04-29T08:04:51.476Z,98260.59
2023-04-29T08:07:18.989Z,98256.13
2023-04-29T08:09:45.775Z,98260.47
2023-04-29T08:12:12.481Z,98262.16
2023-04-29T08:14:40.350Z,98259.50
2023-04-29T08:17:08.311Z,98245.91
2023-04-29T08:19:35.016Z,98250.81
2023-04-29T08:22:01.944Z,98251.44
2023-04-29T08:24:29.677Z,98250.34
2023-04-29T08:26:56.384Z,98234.50
2023-04-29T08:29:22.884Z,98252.16
2023-04-29T08:31:50.142Z,98250.59
2023-04-29T08:34:16.861Z,98241.06
2023-04-29T08:36:43.536Z,98256.09
2023-04-29T08:39:10.450Z,98251.66
2023-04-29T08:41:39.889Z,98243.22
2023-04-29T08:44:06.837Z,98255.00
2023-04-29T08:46:33.918Z,98255.97
2023-04-29T08:49:03.852Z,98252.25
2023-04-29T08:51:32.250Z,98241.53
2023-04-29T08:53:58.878Z,98236.97
2023-04-29T08:56:28.050Z,98244.03
2023-04-29T08:58:59.021Z,98244.03
2023-04-29T09:01:29.542Z,98254.50
2023-04-29T09:04:15.894Z,98249.19
2023-04-29T09:06:42.530Z,98250.19
2023-04-29T09:09:09.682Z,98235.78
2023-04-29T09:11:37.481Z,98238.28
2023-04-29T09:14:08.149Z,98250.19
2023-04-29T09:16:37.354Z,98249.78
2023-04-29T09:19:04.041Z,98260.38
2023-04-29T09:21:33.494Z,98250.19
2023-04-29T09:24:01.835Z,98257.72
2023-04-29T09:26:40.867Z,98262.94
2023-04-29T09:29:14.131Z,98247.03
2023-04-29T09:31:41.078Z,98246.91
2023-04-29T09:34:08.152Z,98247.75
2023-04-29T09:36:49.079Z,98234.19
2023-04-29T09:39:20.702Z,98229.00
2023-04-29T09:41:53.254Z,98238.00
2023-04-29T09:44:20.633Z,98253.03
2023-04-29T09:47:04.001Z,98244.25
2023-04-29T09:49:33.032Z,98248.59
2023-04-29T09:52:01.407Z,98249.44
2023-04-29T09:54:33.066Z,98238.69
2023-04-29T09:57:02.325Z,98237.16
2023-04-29T09:59:28.934Z,98216.59
2023-04-29T10:01:57.503Z,98202.91
2023-04-29T10:04:26.413Z,98233.31
2023-04-29T10:06:54.804Z,98222.13
2023-04-29T10:09:23.123Z,98203.38
2023-04-29T10:11:52.009Z,98215.13
2023-04-29T10:14:24.860Z,98226.06
2023-04-29T10:17:18.517Z,98219.94
2023-04-29T10:19:58.849Z,98222.00
2023-04-29T10:22:46.425Z,98221.63
2023-04-29T10:25:15.124Z,98176.09
2023-04-29T10:27:48.402Z,98224.25
2023-04-29T10:30:19.871Z,98215.59
2023-04-29T10:32:51.724Z,98217.41
2023-04-29T10:35:22.759Z,98211.97
2023-04-29T10:37:49.682Z,98218.97
2023-04-29T10:40:27.990Z,98213.66
2023-04-29T10:42:55.570Z,98211.84
2023-04-29T10:45:29.983Z,98209.19
2023-04-29T10:48:11.824Z,98211.72
2023-04-29T10:51:01.382Z,98201.25
2023-04-29T10:53:31.321Z,98181.91
2023-04-29T10:56:09.349Z,98209.06
2023-04-29T10:58:45.750Z,98205.44
2023-04-29T11:01:17.681Z,98159.25
2023-04-29T11:03:48.190Z,98202.66
2023-04-29T11:06:15.909Z,98204.50
2023-04-29T11:08:45.557Z,98201.03
2023-04-29T11:11:14.336Z,98191.75
2023-04-29T11:13:40.996Z,98214.94
2023-04-29T11:16:08.745Z,98202.94
2023-04-29T11:18:36.946Z,98207.00
2023-04-29T11:21:06.621Z,98206.19
2023-04-29T11:23:37.246Z,98202.66
2023-04-29T11:26:07.071Z,98150.72
2023-04-29T11:28:34.140Z,98194.72
2023-04-29T11:31:00.899Z,98198.09
2023-04-29T11:33:28.070Z,98170.25
2023-04-29T11:35:55.895Z,98200.75
2023-04-29T11:38:30.385Z,98198.22
2023-04-29T11:41:00.177Z,98173.47
2023-04-29T11:43:26.883Z,98196.31
2023-04-29T11:45:53.809Z,98185.13
2023-04-29T11:48:26.585Z,98190.44
2023-04-29T11:51:00.019Z,98194.63
2023-04-29T11:53:30.408Z,98188.38
2023-04-29T11:55:57.223Z,98190.03
2023-04-29T11:58:24.812Z,98195.31
2023-04-29T12:00:54.486Z,98175.50
2023-04-29T12:03:21.838Z,98172.00
2023-04-29T12:05:56.614Z,98170.44
2023-04-29T12:08:28.020Z,98181.63
2023-04-29T12:10:56.359Z,98186.53
2023-04-29T12:13:24.520Z,98182.06
2023-04-29T12:15:52.665Z,98182.06
2023-04-29T12:18:19.949Z,98185.59
2023-04-29T12:20:48.165Z,98162.88
2023-04-29T12:23:17.962Z,98162.78
2023-04-29T12:25:53.166Z,98178.97
2023-04-29T12:28:20.952Z,98171.31
2023-04-29T12:30:49.207Z,98183.75
2023-04-29T12:33:19.794Z,98171.88
2023-04-29T12:35:46.330Z,98169.69
2023-04-29T12:38:18.254Z,98167.03
2023-04-29T12:40:44.806Z,98173.16
2023-04-29T12:43:11.999Z,98171.63
2023-04-29T12:45:39.052Z,98175.81
2023-04-29T12:48:09.999Z,98169.56
2023-04-29T12:50:49.640Z,98174.13
2023-04-29T12:53:16.311Z,98167.03
2023-04-29T12:55:42.948Z,98156.69
2023-04-29T12:58:09.727Z,98148.31
2023-04-29T13:00:37.893Z,98157.06
2023-04-29T13:03:04.916Z,98157.41
2023-04-29T13:05:31.802Z,98162.94
2023-04-29T13:07:58.504Z,98165.94
2023-04-29T13:10:26.499Z,98172.06
2023-04-29T13:12:53.073Z,98144.94
2023-04-29T13:15:19.718Z,98165.94
2023-04-29T13:17:46.492Z,98165.09
2023-04-29T13:20:13.458Z,98163.28
2023-04-29T13:22:40.061Z,98160.50
2023-04-29T13:25:07.320Z,98173.75
2023-04-29T13:27:33.931Z,98168.59
2023-04-29T13:30:00.979Z,98164.25
2023-04-29T13:32:38.114Z,98167.50
2023-04-29T13:35:11.374Z,98163.03
2023-04-29T13:37:37.866Z,98159.53
2023-04-29T13:40:07.220Z,98150.56
2023-04-29T13:42:39.566Z,98156.06
2023-04-29T13:45:16.230Z,98159.53
2023-04-29T13:48:03.698Z,98152.44
2023-04-29T13:58:43.740Z,98138.53
2023-04-29T14:01:17.136Z,98152.56
2023-04-29T14:03:35.647Z,98135.19
2023-04-29T14:06:02.784Z,98151.75
2023-04-29T14:08:29.419Z,98157.03
2023-04-29T14:10:55.995Z,98148.63
2023-04-29T14:13:22.729Z,98139.13
2023-04-29T14:15:49.296Z,98154.38
2023-04-29T14:18:15.973Z,98132.78
2023-04-29T14:20:42.559Z,98141.66
2023-04-29T14:23:09.106Z,98150.06
2023-04-29T14:25:35.722Z,98123.88
2023-04-29T14:28:02.396Z,98150.88
2023-04-29T14:30:29.079Z,98149.91
2023-04-29T14:32:58.296Z,98141.38
2023-04-29T14:35:25.015Z,98148.22
2023-04-29T14:37:51.706Z,98152.69
2023-04-29T14:40:18.290Z,98133.38
2023-04-29T14:42:44.862Z,98147.41
2023-04-29T14:45:12.297Z,98149.19
2023-04-29T14:47:38.919Z,98151.84
2023-04-29T14:50:06.299Z,98138.16
2023-04-29T14:52:32.886Z,98156.19
2023-04-29T14:54:59.392Z,98149.34
2023-04-29T14:57:26.336Z,98150.88
2023-04-29T14:59:52.839Z,98152.69
2023-04-29T15:02:20.357Z,98135.78
2023-04-29T15:04:47.069Z,98140.56
2023-04-29T15:07:14.157Z,98155.22
2023-04-29T15:09:40.879Z,98158.72
2023-04-29T15:12:08.713Z,98150.78
2023-04-29T15:14:35.511Z,98155.22
2023-04-29T15:17:02.114Z,98156.91
2023-04-29T15:19:28.716Z,98155.06
2023-04-29T15:21:55.751Z,98155.94
2023-04-29T15:24:22.392Z,98151.59
2023-04-29T15:26:49.767Z,98099.41
2023-04-29T15:29:16.270Z,98148.00
2023-04-29T15:31:42.965Z,98149.78
2023-04-29T15:34:09.680Z,98143.53
2023-04-29T15:36:36.583Z,98144.47
2023-04-29T15:39:03.291Z,98137.91
2023-04-29T15:41:29.891Z,98135.41
2023-04-29T15:43:57.360Z,98145.47
2023-04-29T15:46:24.598Z,98141.78
2023-04-29T15:48:51.616Z,98156.06
2023-04-29T15:51:18.724Z,98160.13
2023-04-29T15:53:45.462Z,98154.97
2023-04-29T15:56:12.199Z,98154.97
2023-04-29T15:58:41.591Z,98155.78
2023-04-29T16:03:28.145Z,98135.66
2023-04-29T16:05:54.916Z,98148.94
2023-04-29T16:08:21.439Z,98148.94
2023-04-29T16:10:49.620Z,98134.88
2023-04-29T16:13:16.153Z,98148.13
2023-04-29T16:15:42.865Z,98154.25
2023-04-29T16:18:09.676Z,98152.56
2023-04-29T16:20:36.407Z,98156.19
2023-04-29T16:23:03.004Z,98151.28
2023-04-29T16:25:29.646Z,98136.88
2023-04-29T16:27:56.482Z,98156.44
2023-04-29T16:30:23.631Z,98141.47
2023-04-29T16:32:50.498Z,98157.41
2023-04-29T16:35:17.255Z,98161.03
2023-04-29T16:37:43.789Z,98156.69
2023-04-29T16:40:11.064Z,98131.16
2023-04-29T16:42:38.760Z,98171.75
2023-04-29T16:45:07.256Z,98168.25
2023-04-29T16:47:35.354Z,98171.03
2023-04-29T16:50:01.993Z,98170.22
2023-04-29T16:52:28.894Z,98156.91
2023-04-29T16:54:57.142Z,98173.69
2023-04-29T16:57:26.508Z,98179.94
2023-04-29T16:59:53.829Z,98188.03
2023-04-29T17:02:21.072Z,98176.38
2023-04-29T17:04:47.877Z,98143.44
2023-04-29T17:07:15.791Z,98207.66
2023-04-29T17:09:44.315Z,98203.50
2023-04-29T17:12:10.939Z,98203.97
2023-04-29T17:14:40.223Z,98205.66
2023-04-29T17:17:07.271Z,98224.03
2023-04-29T17:19:34.472Z,98232.56
2023-04-29T17:22:00.998Z,98235.22
2023-04-29T17:24:27.653Z,98230.06
2023-04-29T17:26:54.267Z,98227.41
2023-04-29T17:29:20.920Z,98218.63
2023-04-29T17:31:54.482Z,98217.91
2023-04-29T17:34:25.329Z,98217.91
2023-04-29T17:36:53.202Z,98222.22
2023-04-29T17:39:19.938Z,98214.41
2023-04-29T17:41:46.731Z,98213.69
2023-04-29T17:44:13.215Z,98206.59
2023-04-29T17:46:43.084Z,98212.88
2023-04-29T17:49:09.647Z,98204.09
2023-04-29T17:51:36.444Z,98203.38
2023-04-29T17:54:07.204Z,98202.66
2023-04-29T17:56:35.049Z,98215.78
2023-04-29T17:59:02.537Z,98202.66
2023-04-29T18:01:29.348Z,98209.75
2023-04-29T18:03:55.955Z,98204.97
2023-04-29T18:06:22.652Z,98218.06
2023-04-29T18:08:49.242Z,98224.09
2023-04-29T18:11:15.760Z,98234.69
2023-04-29T18:13:42.331Z,98220.50
2023-04-29T18:16:09.134Z,98254.16
2023-04-29T18:18:37.216Z,98265.97
2023-04-29T18:21:04.552Z,98269.59
2023-04-29T18:23:31.246Z,98274.63
2023-04-29T18:25:58.013Z,98252.06
2023-04-29T18:28:25.554Z,98283.50
2023-04-29T18:30:52.718Z,98273.19
2023-04-29T18:33:19.328Z,98281.00
2023-04-29T18:35:46.233Z,98287.16
2023-04-29T18:38:16.221Z,98280.19
2023-04-29T18:40:45.981Z,98285.47
2023-04-29T18:43:15.195Z,98288.22
2023-04-29T18:45:41.850Z,98288.34
2023-04-29T18:48:08.659Z,98290.03
2023-04-29T18:50:35.361Z,98291.84
2023-04-29T18:53:01.900Z,98291.84
2023-04-29T18:55:28.848Z,98283.31
2023-04-29T18:57:55.382Z,98296.28
2023-04-29T19:00:22.187Z,98287.53
2023-04-29T19:02:49.178Z,98287.53
2023-04-29T19:05:16.412Z,98294.59
2023-04-29T19:07:43.334Z,98293.78
2023-04-29T19:10:10.366Z,98290.28
2023-04-29T19:12:37.108Z,98298.34
2023-04-29T19:15:04.067Z,98301.13
2023-04-29T19:17:30.594Z,98295.81
2023-04-29T19:19:57.296Z,98296.06
2023-04-29T19:22:23.875Z,98282.44
2023-04-29T19:24:50.490Z,98304.72
2023-04-29T19:27:17.208Z,98295.09
2023-04-29T19:29:43.926Z,98291.03
2023-04-29T19:32:10.499Z,98296.06
2023-04-29T19:34:37.176Z,98295.22
2023-04-29T19:37:04.179Z,98291.75
2023-04-29T19:39:30.857Z,98291.75
2023-04-29T19:41:58.242Z,98278.25
2023-04-29T19:44:28.042Z,98294.50
2023-04-29T19:46:54.617Z,98291.16
2023-04-29T19:49:21.312Z,98296.31
2023-04-29T19:51:47.927Z,98292.84
2023-04-29T19:54:14.476Z,98292.91
2023-04-29T19:56:41.060Z,98292.06
2023-04-29T19:59:07.704Z,98304.44
2023-04-29T20:01:34.431Z,98292.22
2023-04-29T20:04:01.018Z,98291.34
2023-04-29T20:06:28.318Z,98286.41
2023-04-29T20:08:54.827Z,98290.53
2023-04-29T20:11:21.884Z,98288.84
2023-04-29T20:13:52.160Z,98286.19
2023-04-29T20:16:19.502Z,98286.19
2023-04-29T20:18:47.085Z,98294.13
2023-04-29T20:21:13.676Z,98299.66
2023-04-29T20:23:40.208Z,98289.78
2023-04-29T20:26:06.804Z,98291.59
2023-04-29T20:28:33.370Z,98248.94
2023-04-29T20:30:59.993Z,98290.66
2023-04-29T20:33:29.803Z,98299.53
2023-04-29T20:35:57.580Z,98281.97
2023-04-29T20:38:24.737Z,98254.09
2023-04-29T20:40:54.466Z,98271.63
2023-04-29T20:43:23.733Z,98281.03
2023-04-29T20:45:50.732Z,98275.72
2023-04-29T20:48:17.911Z,98264.69
2023-04-29T20:50:44.510Z,98281.03
2023-04-29T20:53:11.111Z,98277.53
2023-04-29T20:55:38.243Z,98283.75
2023-04-29T20:58:04.916Z,98286.19
2023-04-29T21:00:31.920Z,98280.06
2023-04-29T21:02:58.455Z,98267.56
2023-04-29T21:05:27.051Z,98291.47
2023-04-29T21:07:53.621Z,98290.53
2023-04-29T21:10:20.866Z,98297.59
2023-04-29T21:12:47.463Z,98287.41
2023-04-29T21:15:14.211Z,98293.28
2023-04-29T21:17:40.714Z,98281.50
2023-04-29T21:20:08.715Z,98302.78
2023-04-29T21:22:35.479Z,98292.31
2023-04-29T21:25:02.097Z,98292.31
2023-04-29T21:27:28.741Z,98294.94
2023-04-29T21:29:55.630Z,98289.91
2023-04-29T21:32:22.406Z,98302.88
2023-04-29T21:34:49.150Z,98290.41
2023-04-29T21:37:15.926Z,98305.53
2023-04-29T21:39:42.724Z,98308.19
2023-04-29T21:42:10.895Z,98303.00
2023-04-29T21:44:38.282Z,98302.41
2023-04-29T21:47:05.016Z,98276.22
2023-04-29T21:49:32.029Z,98309.16
2023-04-29T21:51:59.447Z,98314.47
2023-04-29T21:54:26.042Z,98311.09
2023-04-29T21:59:12.880Z,98308.66
2023-04-29T22:01:48.045Z,98325.03
2023-04-29T22:04:19.047Z,98327.69
2023-04-29T22:06:46.376Z,98302.19
2023-04-29T22:09:13.064Z,98319.75
2023-04-29T22:11:39.729Z,98314.47
2023-04-29T22:14:06.603Z,98317.94
2023-04-29T22:16:35.897Z,98304.09
2023-04-29T22:19:03.074Z,98308.56
2023-04-29T22:21:29.961Z,98309.41
2023-04-29T22:23:56.464Z,98314.47
2023-04-29T22:26:25.546Z,98268.66
2023-04-29T22:28:52.538Z,98312.66
2023-04-29T22:31:19.162Z,98320.59
2023-04-29T22:33:46.189Z,98315.28
2023-04-29T22:36:12.747Z,98317.94
2023-04-29T22:38:39.291Z,98304.22
2023-04-29T22:41:07.180Z,98300.38
2023-04-29T22:43:33.677Z,98325.03
2023-04-29T22:46:00.973Z,98317.09
2023-04-29T22:48:28.117Z,98323.22
2023-04-29T22:50:58.647Z,98327.69
2023-04-29T22:53:26.646Z,98327.69
2023-04-29T22:55:55.080Z,98330.34
2023-04-29T22:58:22.054Z,98323.34
2023-04-29T23:00:56.861Z,98330.44
2023-04-29T23:03:24.251Z,98324.44
2023-04-29T23:05:51.376Z,98303.38
2023-04-29T23:08:18.081Z,98326.09
2023-04-29T23:10:49.382Z,98332.25
2023-04-29T23:13:16.589Z,98329.59
2023-04-29T23:15:43.654Z,98323.72
2023-04-29T23:18:10.448Z,98327.09
2023-04-29T23:20:37.101Z,98305.31
2023-04-29T23:23:04.959Z,98321.81
2023-04-29T23:25:31.580Z,98323.59
2023-04-29T23:27:58.202Z,98318.28
2023-04-29T23:30:24.792Z,98329.00
2023-04-29T23:32:51.394Z,98324.53
2023-04-29T23:35:17.914Z,98331.53
2023-04-29T23:37:44.600Z,98329.84
2023-04-29T23:40:11.325Z,98319.72
2023-04-29T23:42:37.884Z,98320.47
2023-04-29T23:45:05.773Z,98327.31
2023-04-29T23:47:32.399Z,98331.66
2023-04-29T23:49:58.941Z,98325.53
2023-04-29T23:52:25.697Z,98330.81
2023-04-29T23:54:52.240Z,98334.44
2023-04-29T23:57:18.798Z,98328.19
2023-04-29T23:59:45.668Z,98344.06
